Time;durP1;ratioP1;P1;durP2;ratioP2;P2;SDS_P1;SDS_P2;PMS_P1;PMS_P2;Temp;Humidity;BMP_temperature;BMP_pressure;BME280_temperature;BME280_humidity;BME280_pressure;Samples;Min_cycle;Max_cycle;Signal;HPM_P1;HPM_P2
2021/07/16 00:01:22;;;;;;;26.25;7.13;;;;;;;17.88;100.00;100608.38;4845130;29;20026;-77
2021/07/16 00:03:47;;;;;;;27.63;7.78;;;;;;;17.87;100.00;100609.31;4845009;29;20029;-77
2021/07/16 00:06:12;;;;;;;21.33;7.07;;;;;;;17.85;100.00;100604.13;4845002;29;20081;-77
2021/07/16 00:08:37;;;;;;;21.52;6.13;;;;;;;17.82;100.00;100603.41;4844981;29;20124;-77
2021/07/16 00:11:03;;;;;;;21.67;6.60;;;;;;;17.74;100.00;100606.38;4861691;29;20029;-77
2021/07/16 00:13:28;;;;;;;22.08;6.32;;;;;;;17.73;100.00;100607.28;4844839;29;20184;-77
2021/07/16 00:15:53;;;;;;;29.35;6.30;;;;;;;17.69;100.00;100624.94;4845126;29;20025;-77
2021/07/16 00:18:18;;;;;;;22.05;6.60;;;;;;;17.75;100.00;100626.44;4844762;29;20108;-77
2021/07/16 00:20:44;;;;;;;21.98;7.03;;;;;;;17.76;100.00;100624.66;4844824;29;20033;-77
2021/07/16 00:23:10;;;;;;;21.13;6.72;;;;;;;17.70;100.00;100629.28;4844841;29;20030;-77
2021/07/16 00:25:36;;;;;;;23.58;6.80;;;;;;;17.68;100.00;100618.00;4844721;29;20061;-77
2021/07/16 00:28:02;;;;;;;24.05;7.53;;;;;;;17.58;100.00;100622.00;4844722;29;20188;-77
2021/07/16 00:30:27;;;;;;;18.58;6.70;;;;;;;17.58;100.00;100627.25;4861216;29;20040;-77
2021/07/16 00:32:52;;;;;;;25.42;6.38;;;;;;;17.57;100.00;100622.91;4844638;29;20042;-77
2021/07/16 00:35:18;;;;;;;25.33;6.80;;;;;;;17.48;100.00;100605.81;4844573;29;20470;-77
2021/07/16 00:37:43;;;;;;;19.35;5.57;;;;;;;17.46;100.00;100620.78;4861436;29;20034;-77
2021/07/16 00:40:11;;;;;;;28.15;7.57;;;;;;;17.45;100.00;100619.06;4844478;29;20037;-77
2021/07/16 00:42:37;;;;;;;22.65;5.97;;;;;;;17.41;100.00;100619.28;4844213;29;20025;-77
2021/07/16 00:45:05;;;;;;;23.25;6.70;;;;;;;17.37;100.00;100630.84;4860962;29;20070;-77
2021/07/16 00:47:30;;;;;;;27.77;6.55;;;;;;;17.37;100.00;100621.19;4860816;29;20112;-77
2021/07/16 00:49:56;;;;;;;23.17;7.28;;;;;;;17.34;100.00;100623.97;4844329;29;20086;-77
2021/07/16 00:52:21;;;;;;;20.38;6.10;;;;;;;17.30;100.00;100626.78;4844328;29;20048;-77
2021/07/16 00:54:47;;;;;;;26.13;6.72;;;;;;;17.26;100.00;100624.28;4844513;29;20029;-77
2021/07/16 00:57:12;;;;;;;22.80;6.43;;;;;;;17.28;100.00;100621.63;4844564;29;20030;-77
2021/07/16 00:59:39;;;;;;;21.75;6.15;;;;;;;17.29;100.00;100627.69;4861064;29;20033;-77
2021/07/16 01:02:05;;;;;;;20.85;5.78;;;;;;;17.22;100.00;100620.13;4860711;29;20031;-77
2021/07/16 01:04:30;;;;;;;21.60;6.30;;;;;;;17.17;100.00;100619.47;4860631;29;20033;-77
2021/07/16 01:06:55;;;;;;;26.63;6.45;;;;;;;17.15;100.00;100618.69;4843990;29;20022;-77
2021/07/16 01:09:21;;;;;;;27.35;6.25;;;;;;;17.14;100.00;100624.00;4844056;29;20075;-77
2021/07/16 01:11:46;;;;;;;23.40;6.13;;;;;;;17.13;100.00;100630.16;4844009;29;20061;-77
2021/07/16 01:14:12;;;;;;;19.35;6.40;;;;;;;17.11;100.00;100632.84;4843909;29;20404;-77
2021/07/16 01:16:38;;;;;;;23.60;6.75;;;;;;;17.12;100.00;100641.53;4883304;23;20049;-87
2021/07/16 01:19:05;;;;;;;26.17;6.45;;;;;;;17.07;100.00;100636.53;4844714;29;20025;-87
2021/07/16 01:21:33;;;;;;;24.52;6.97;;;;;;;17.02;100.00;100639.31;4844476;29;20031;-87
2021/07/16 01:23:59;;;;;;;24.83;6.40;;;;;;;17.09;100.00;100637.31;4861213;29;20033;-87
2021/07/16 01:26:24;;;;;;;18.85;5.32;;;;;;;17.02;100.00;100635.84;4861012;29;20391;-87
2021/07/16 01:28:52;;;;;;;18.10;5.88;;;;;;;16.99;100.00;100630.75;4844637;29;20101;-87
2021/07/16 01:31:19;;;;;;;17.48;5.35;;;;;;;16.99;100.00;100634.25;4845832;29;20161;-86
2021/07/16 01:33:44;;;;;;;23.40;6.68;;;;;;;16.93;100.00;100636.25;4844526;29;20037;-87
2021/07/16 01:36:10;;;;;;;21.90;6.72;;;;;;;16.90;100.00;100639.00;4844636;29;20029;-87
2021/07/16 01:38:35;;;;;;;23.92;6.53;;;;;;;16.89;100.00;100640.78;4847205;29;20044;-87
2021/07/16 01:41:00;;;;;;;21.60;6.55;;;;;;;16.90;100.00;100642.50;4848374;29;20036;-87
2021/07/16 01:43:26;;;;;;;20.02;6.50;;;;;;;16.92;100.00;100642.44;4848723;29;20029;-87
2021/07/16 01:45:51;;;;;;;19.08;6.65;;;;;;;16.90;100.00;100639.00;4864774;29;20129;-86
2021/07/16 01:48:17;;;;;;;22.00;6.43;;;;;;;16.92;100.00;100642.44;4848078;29;20479;-87
2021/07/16 01:50:46;;;;;;;16.95;5.85;;;;;;;16.85;100.00;100641.84;4848938;29;20390;-87
2021/07/16 01:53:13;;;;;;;21.80;6.70;;;;;;;16.84;100.00;100637.53;4848018;29;20025;-87
2021/07/16 01:55:39;;;;;;;24.27;6.28;;;;;;;16.84;100.00;100642.78;4847911;29;20036;-85
2021/07/16 01:58:10;;;;;;;19.88;7.18;;;;;;;16.86;100.00;100640.06;4848072;29;20124;-86
2021/07/16 02:00:38;;;;;;;22.15;6.78;;;;;;;16.85;100.00;100643.63;4847929;29;20491;-86
2021/07/16 02:03:07;;;;;;;20.02;6.45;;;;;;;16.83;100.00;100642.81;4848260;29;20025;-85
2021/07/16 02:05:33;;;;;;;19.98;7.03;;;;;;;16.89;100.00;100645.19;4848398;29;20112;-86
2021/07/16 02:08:04;;;;;;;27.63;6.80;;;;;;;16.84;100.00;100652.38;4848200;29;20054;-86
2021/07/16 02:10:30;;;;;;;19.10;5.97;;;;;;;16.83;100.00;100646.28;4848617;29;20060;-86
2021/07/16 02:12:57;;;;;;;21.00;6.38;;;;;;;16.76;100.00;100656.19;4847650;29;20053;-86
2021/07/16 02:15:28;;;;;;;20.88;6.47;;;;;;;16.78;100.00;100656.13;4847646;29;20065;-86
2021/07/16 02:17:53;;;;;;;23.65;6.90;;;;;;;16.70;100.00;100655.56;4864937;29;20033;-86
2021/07/16 02:20:21;;;;;;;28.98;7.40;;;;;;;16.74;100.00;100654.50;4847526;29;20060;-86
2021/07/16 02:22:47;;;;;;;26.20;6.43;;;;;;;16.73;100.00;100658.06;4848381;29;20093;-86
2021/07/16 02:25:13;;;;;;;23.85;7.53;;;;;;;16.76;100.00;100657.97;4847495;29;20029;-86
2021/07/16 02:27:39;;;;;;;20.17;6.95;;;;;;;16.76;100.00;100660.56;4864367;29;20088;-86
2021/07/16 02:30:06;;;;;;;24.23;7.03;;;;;;;16.74;100.00;100659.75;4864012;29;20033;-86
2021/07/16 02:32:31;;;;;;;17.65;6.82;;;;;;;16.67;100.00;100672.25;4864162;29;20037;-86
2021/07/16 02:34:58;;;;;;;29.08;7.07;;;;;;;16.65;100.00;100671.44;4847906;29;20049;-86
2021/07/16 02:37:23;;;;;;;23.67;7.45;;;;;;;16.64;100.00;100671.53;4847694;29;20406;-86
2021/07/16 02:39:48;;;;;;;29.38;7.80;;;;;;;16.65;100.00;100674.06;4863879;29;20037;-86
2021/07/16 02:42:14;;;;;;;24.15;7.43;;;;;;;16.55;100.00;100676.22;4847543;29;20527;-87
2021/07/16 02:44:39;;;;;;;29.05;8.25;;;;;;;16.57;100.00;100669.16;4847232;29;20033;-87
2021/07/16 02:47:05;;;;;;;29.23;8.13;;;;;;;16.53;100.00;100678.06;4847174;29;20037;-85
2021/07/16 02:49:30;;;;;;;22.13;6.65;;;;;;;16.56;100.00;100685.81;4846156;29;20485;-86
2021/07/16 02:51:55;;;;;;;22.60;7.28;;;;;;;16.54;100.00;100674.53;4863820;29;20108;-86
2021/07/16 02:54:20;;;;;;;30.63;7.97;;;;;;;16.51;100.00;100679.88;4847144;29;20044;-86
2021/07/16 02:56:46;;;;;;;30.02;7.97;;;;;;;16.54;100.00;100681.53;4847616;29;20037;-86
2021/07/16 02:59:11;;;;;;;29.75;8.02;;;;;;;16.49;100.00;100684.31;4847361;29;20030;-86
2021/07/16 03:01:56;;;;;;;25.25;7.35;;;;;;;16.49;100.00;100688.72;4846798;29;20048;-86
2021/07/16 03:04:22;;;;;;;28.00;8.13;;;;;;;16.49;100.00;100689.56;4847617;29;20077;-86
2021/07/16 03:06:47;;;;;;;20.00;7.05;;;;;;;16.50;100.00;100682.56;4846845;29;20017;-86
2021/07/16 03:09:13;;;;;;;25.70;7.53;;;;;;;16.53;100.00;100699.03;4847466;29;20030;-86
2021/07/16 03:11:38;;;;;;;28.50;7.50;;;;;;;16.56;100.00;100698.00;4863259;29;20030;-86
2021/07/16 03:14:04;;;;;;;21.33;7.55;;;;;;;16.61;100.00;100692.59;4863477;29;20025;-86
2021/07/16 03:16:30;;;;;;;23.30;6.88;;;;;;;16.61;100.00;100696.06;4863041;29;20045;-86
2021/07/16 03:18:57;;;;;;;28.80;8.18;;;;;;;16.57;100.00;100695.34;4847160;29;20037;-86
2021/07/16 03:21:22;;;;;;;24.23;6.75;;;;;;;16.55;100.00;100691.09;4846626;29;20030;-86
2021/07/16 03:23:48;;;;;;;22.35;6.88;;;;;;;16.56;100.00;100698.00;4863425;29;20051;-86
2021/07/16 03:26:13;;;;;;;25.83;6.95;;;;;;;16.55;100.00;100696.31;4846431;29;20505;-86
2021/07/16 03:28:38;;;;;;;24.58;7.03;;;;;;;16.49;100.00;100686.94;4846403;29;20029;-86
2021/07/16 03:31:04;;;;;;;24.75;8.27;;;;;;;16.50;100.00;100691.28;4846925;29;20033;-87
2021/07/16 03:33:30;;;;;;;28.02;6.95;;;;;;;16.54;100.00;100695.47;4862962;29;20025;-86
2021/07/16 03:35:55;;;;;;;27.05;7.45;;;;;;;16.61;100.00;100698.69;4846684;29;20061;-86
2021/07/16 03:38:20;;;;;;;24.40;6.82;;;;;;;16.62;100.00;100708.25;4846578;29;20113;-87
2021/07/16 03:40:52;;;;;;;28.92;6.40;;;;;;;16.62;100.00;100703.00;4862747;29;20029;-86
2021/07/16 03:43:17;;;;;;;27.15;6.97;;;;;;;16.67;100.00;100708.91;4846997;29;20026;-86
2021/07/16 03:45:43;;;;;;;30.30;7.82;;;;;;;16.72;100.00;100712.22;4862615;29;20030;-86
2021/07/16 03:48:08;;;;;;;30.23;6.25;;;;;;;16.75;100.00;100712.13;4846211;29;20034;-86
2021/07/16 03:50:34;;;;;;;25.20;6.70;;;;;;;16.77;100.00;100714.66;4845960;29;20041;-86
2021/07/16 03:52:59;;;;;;;24.58;6.93;;;;;;;16.83;100.00;100717.03;4846396;29;20466;-86
2021/07/16 03:55:24;;;;;;;26.90;6.43;;;;;;;16.77;100.00;100718.13;4846329;29;20040;-86
2021/07/16 03:57:50;;;;;;;27.60;6.72;;;;;;;16.79;100.00;100718.91;4845681;29;20037;-86
2021/07/16 04:00:28;;;;;;;26.75;6.93;;;;;;;16.75;100.00;100719.09;4862489;29;20034;-86
2021/07/16 04:02:54;;;;;;;26.63;6.63;;;;;;;16.76;100.00;100724.28;4862639;29;20025;-86
2021/07/16 04:05:20;;;;;;;24.42;6.40;;;;;;;16.82;100.00;100717.09;4846003;29;20502;-86
2021/07/16 04:07:45;;;;;;;28.88;6.32;;;;;;;16.78;100.00;100722.47;4845805;29;20406;-86
2021/07/16 04:10:13;;;;;;;26.48;6.03;;;;;;;16.89;100.00;100718.53;4862555;29;20033;-86
2021/07/16 04:12:38;;;;;;;26.55;6.30;;;;;;;16.98;100.00;100720.78;4845703;29;20029;-86
2021/07/16 04:15:04;;;;;;;23.77;6.75;;;;;;;17.02;100.00;100719.72;4862700;29;20398;-87
2021/07/16 04:17:30;;;;;;;22.15;6.10;;;;;;;17.03;100.00;100714.44;4845988;29;20406;-86
2021/07/16 04:19:55;;;;;;;28.10;6.70;;;;;;;17.06;100.00;100717.81;4848524;29;20029;-86
2021/07/16 04:22:24;;;;;;;24.65;6.57;;;;;;;17.02;100.00;100722.34;4846887;29;20032;-86
2021/07/16 04:24:51;;;;;;;22.45;6.75;;;;;;;17.01;100.00;100731.13;4846898;29;20444;-86
2021/07/16 04:27:16;;;;;;;24.70;6.70;;;;;;;17.10;100.00;100728.13;4863104;29;20531;-86
2021/07/16 04:29:43;;;;;;;25.63;6.75;;;;;;;17.10;100.00;100733.34;4863331;29;20033;-87
2021/07/16 04:32:09;;;;;;;31.63;8.30;;;;;;;17.23;100.00;100726.66;4846877;29;20068;-87
2021/07/16 04:34:36;;;;;;;34.35;7.82;;;;;;;17.20;100.00;100732.03;4862899;29;20097;-86
2021/07/16 04:37:03;;;;;;;25.98;7.10;;;;;;;17.22;100.00;100734.59;4862992;29;20025;-86
2021/07/16 04:39:28;;;;;;;25.25;7.82;;;;;;;17.31;100.00;100744.69;4863231;29;20487;-86
2021/07/16 04:41:54;;;;;;;24.88;7.97;;;;;;;17.25;100.00;100744.97;4846569;29;20048;-86
2021/07/16 04:44:20;;;;;;;31.45;8.63;;;;;;;17.21;100.00;100736.38;4862983;29;20104;-86
2021/07/16 04:46:45;;;;;;;31.27;7.82;;;;;;;17.37;100.00;100735.72;4846611;29;20498;-86
2021/07/16 04:49:11;;;;;;;31.90;8.00;;;;;;;17.47;100.00;100744.88;4846437;29;20029;-86
2021/07/16 04:51:36;;;;;;;32.20;7.63;;;;;;;17.64;100.00;100750.25;4845666;29;20165;-86
2021/07/16 04:54:03;;;;;;;36.13;8.93;;;;;;;17.74;100.00;100744.59;4845040;29;20085;-86
2021/07/16 04:56:29;;;;;;;28.15;7.43;;;;;;;17.83;100.00;100750.28;4844718;29;20052;-86
2021/07/16 04:58:55;;;;;;;30.92;8.48;;;;;;;17.60;100.00;100742.56;4845256;29;20053;-86
2021/07/16 05:01:22;;;;;;;35.53;9.20;;;;;;;17.69;100.00;100748.25;4861430;29;20061;-86
2021/07/16 05:03:49;;;;;;;32.33;8.07;;;;;;;17.44;100.00;100745.84;4844782;29;20063;-86
2021/07/16 05:06:14;;;;;;;28.98;8.70;;;;;;;17.42;100.00;100746.84;4844782;29;20022;-86
2021/07/16 05:08:40;;;;;;;31.02;9.77;;;;;;;17.55;100.00;100741.91;4861618;29;20479;-86
2021/07/16 05:11:07;;;;;;;34.03;8.52;;;;;;;17.67;100.00;100752.72;4845258;29;20101;-86
2021/07/16 05:13:35;;;;;;;31.70;7.95;;;;;;;17.47;100.00;100744.88;4861028;29;20033;-86
2021/07/16 05:16:02;;;;;;;34.53;8.82;;;;;;;17.41;100.00;100746.00;4844801;29;20483;-86
2021/07/16 05:18:27;;;;;;;32.53;8.18;;;;;;;17.46;100.00;100751.06;4845248;29;20065;-87
2021/07/16 05:20:52;;;;;;;39.97;9.43;;;;;;;17.39;100.00;100757.47;4861230;29;20021;-87
2021/07/16 05:23:17;;;;;;;33.85;9.23;;;;;;;17.29;100.00;100749.16;4861534;29;20040;-86
2021/07/16 05:25:43;;;;;;;33.25;8.52;;;;;;;17.38;100.00;100755.75;4861190;29;20105;-87
2021/07/16 05:28:08;;;;;;;35.22;8.63;;;;;;;17.46;100.00;100751.06;4861622;29;20042;-87
2021/07/16 05:30:33;;;;;;;31.98;9.32;;;;;;;17.49;100.00;100749.13;4861135;29;20030;-87
2021/07/16 05:32:59;;;;;;;25.90;7.57;;;;;;;17.56;100.00;100752.34;4861073;29;20534;-87
2021/07/16 05:35:24;;;;;;;33.90;9.35;;;;;;;17.84;100.00;100748.50;4861144;29;20113;-86
2021/07/16 05:37:49;;;;;;;32.30;8.85;;;;;;;18.07;100.00;100744.81;4844424;29;20108;-87
2021/07/16 05:40:15;;;;;;;32.05;9.18;;;;;;;18.16;100.00;100754.91;4844665;29;20490;-87
2021/07/16 05:42:40;;;;;;;33.67;8.50;;;;;;;18.06;100.00;100743.97;4863722;29;20379;-87
2021/07/16 05:45:06;;;;;;;39.03;9.02;;;;;;;18.21;100.00;100754.69;4844692;29;20057;-87
2021/07/16 05:47:31;;;;;;;36.00;10.15;;;;;;;18.27;100.00;100755.25;4860958;29;20029;-87
2021/07/16 05:49:56;;;;;;;28.15;8.63;;;;;;;18.04;100.00;100758.09;4861104;29;20026;-87
2021/07/16 05:52:24;;;;;;;31.38;9.45;;;;;;;18.11;100.00;100757.75;4860954;29;20360;-87
2021/07/16 05:54:49;;;;;;;33.72;9.07;;;;;;;18.24;100.00;100757.19;4860841;29;20029;-87
2021/07/16 05:57:14;;;;;;;29.13;9.38;;;;;;;18.37;100.00;100769.66;4861209;29;20170;-87
2021/07/16 05:59:39;;;;;;;37.80;9.23;;;;;;;18.30;100.00;100780.53;4861473;29;20486;-87
2021/07/16 06:02:09;;;;;;;31.77;8.57;;;;;;;18.30;100.00;100783.16;4844853;29;20041;-86
2021/07/16 06:04:35;;;;;;;36.60;10.25;;;;;;;18.21;100.00;100783.56;4861754;29;20143;-88
2021/07/16 06:07:00;;;;;;;30.45;9.45;;;;;;;18.43;100.00;100786.88;4861704;29;20026;-88
2021/07/16 06:09:25;;;;;;;32.42;8.35;;;;;;;18.34;100.00;100784.69;4861608;29;20030;-88
2021/07/16 06:11:50;;;;;;;32.17;9.15;;;;;;;18.39;100.00;100787.97;4844406;29;20033;-88
2021/07/16 06:14:16;;;;;;;30.15;8.77;;;;;;;18.39;100.00;100788.81;4860951;29;20490;-88
2021/07/16 06:16:41;;;;;;;27.13;7.95;;;;;;;18.38;100.00;100778.38;4844094;29;20030;-88
2021/07/16 06:19:06;;;;;;;29.73;8.40;;;;;;;18.42;100.00;100781.72;4860892;29;20376;-88
2021/07/16 06:21:31;;;;;;;25.42;8.02;;;;;;;18.32;100.00;100786.56;4844282;29;20025;-88
2021/07/16 06:23:57;;;;;;;29.65;8.88;;;;;;;18.41;100.00;100796.59;4844855;29;20032;-88
2021/07/16 06:26:22;;;;;;;32.58;8.95;;;;;;;18.48;100.00;100795.41;4847481;29;20085;-88
2021/07/16 06:28:48;;;;;;;34.55;9.25;;;;;;;18.67;100.00;100794.53;4847441;29;20053;-88
2021/07/16 06:31:13;;;;;;;38.20;9.65;;;;;;;18.64;100.00;100798.16;4864269;29;20029;-88
2021/07/16 06:33:39;;;;;;;25.73;9.13;;;;;;;18.78;100.00;100795.75;4863853;29;20040;-88
2021/07/16 06:36:04;;;;;;;34.30;10.32;;;;;;;18.85;100.00;100796.31;4863875;29;20490;-88
2021/07/16 06:38:30;;;;;;;31.05;9.88;;;;;;;18.62;100.00;100803.47;4847235;29;20025;-88
2021/07/16 06:40:55;;;;;;;27.67;9.65;;;;;;;18.69;100.00;100800.56;4847378;29;20061;-86
2021/07/16 06:43:20;;;;;;;29.92;9.80;;;;;;;18.93;100.00;100798.53;4847351;29;20029;-86
2021/07/16 06:45:45;;;;;;;38.15;9.68;;;;;;;19.48;100.00;100801.88;4863600;29;20037;-88
2021/07/16 06:48:11;;;;;;;28.67;8.95;;;;;;;20.38;100.00;100800.66;4847500;29;20045;-88
2021/07/16 06:50:36;;;;;;;27.10;8.63;;;;;;;20.38;100.00;100809.44;4847256;29;20380;-87
2021/07/16 06:53:01;;;;;;;27.02;8.65;;;;;;;19.82;100.00;100810.69;4863865;29;20036;-87
2021/07/16 06:55:27;;;;;;;28.10;9.77;;;;;;;20.09;100.00;100815.41;4863673;29;20033;-87
2021/07/16 06:57:52;;;;;;;29.85;9.10;;;;;;;20.86;100.00;100818.16;4846876;29;20033;-87
2021/07/16 07:00:17;;;;;;;25.48;8.02;;;;;;;22.20;100.00;100821.69;4847072;29;20448;-87
2021/07/16 07:02:43;;;;;;;28.83;9.02;;;;;;;21.50;100.00;100821.53;4847837;29;20032;-87
2021/07/16 07:05:09;;;;;;;32.25;9.02;;;;;;;20.71;100.00;100826.09;4847676;29;20120;-88
2021/07/16 07:07:35;;;;;;;24.65;7.53;;;;;;;20.98;100.00;100828.97;4853282;29;20065;-87
2021/07/16 07:10:00;;;;;;;32.72;8.45;;;;;;;21.81;100.00;100820.53;4854103;29;20479;-87
2021/07/16 07:12:25;;;;;;;24.75;8.60;;;;;;;21.79;97.43;100829.47;4863890;29;20112;-85
2021/07/16 07:14:52;;;;;;;27.23;7.82;;;;;;;21.66;100.00;100825.88;4864096;29;20022;-85
2021/07/16 07:17:18;;;;;;;26.25;7.75;;;;;;;21.58;98.23;100828.97;4846995;29;20061;-85
2021/07/16 07:19:44;;;;;;;31.13;7.65;;;;;;;22.17;95.64;100831.59;4847399;29;20029;-85
2021/07/16 07:22:09;;;;;;;29.02;8.68;;;;;;;22.33;93.64;100826.19;4847226;29;20150;-85
2021/07/16 07:24:34;;;;;;;24.15;7.03;;;;;;;23.04;91.51;100839.22;4847732;29;20108;-86
2021/07/16 07:27:00;;;;;;;25.42;7.07;;;;;;;22.41;89.79;100842.41;4863800;29;20022;-85
2021/07/16 07:29:25;;;;;;;27.10;7.32;;;;;;;22.52;94.34;100846.06;4864027;29;20125;-85
2021/07/16 07:31:51;;;;;;;17.58;6.25;;;;;;;23.66;87.66;100846.53;4864014;29;20055;-85
2021/07/16 07:34:16;;;;;;;26.48;6.28;;;;;;;23.77;84.34;100837.88;4847029;29;20025;-85
2021/07/16 07:36:41;;;;;;;19.35;5.50;;;;;;;23.63;84.60;100842.31;4846411;29;20034;-86
2021/07/16 07:39:07;;;;;;;22.88;6.43;;;;;;;23.75;85.25;100845.94;4863667;29;20029;-86
2021/07/16 07:41:32;;;;;;;25.02;6.70;;;;;;;23.66;83.00;100851.84;4847122;29;20039;-87
2021/07/16 07:43:58;;;;;;;24.52;5.63;;;;;;;23.94;83.50;100845.50;4847332;29;20085;-86
2021/07/16 07:46:24;;;;;;;23.00;6.78;;;;;;;23.96;84.18;100851.56;4862952;29;20057;-87
2021/07/16 07:48:50;;;;;;;24.95;6.32;;;;;;;22.89;86.24;100842.84;4846476;29;20067;-86
2021/07/16 07:51:15;;;;;;;23.58;5.97;;;;;;;23.60;84.72;100852.25;4863059;29;20427;-85
2021/07/16 07:53:41;;;;;;;24.90;6.55;;;;;;;24.31;82.21;100843.75;4863785;29;20117;-87
2021/07/16 07:56:06;;;;;;;19.45;5.97;;;;;;;24.18;82.21;100844.75;4846167;29;20026;-85
2021/07/16 07:58:31;;;;;;;24.60;5.28;;;;;;;23.98;84.44;100841.69;4862992;29;20509;-86
2021/07/16 08:00:57;;;;;;;22.45;5.70;;;;;;;24.01;82.43;100840.63;4867298;29;20394;-85
2021/07/16 08:03:24;;;;;;;26.42;5.63;;;;;;;24.54;79.78;100841.31;4855967;29;20026;-85
2021/07/16 08:05:50;;;;;;;20.77;5.72;;;;;;;24.28;78.73;100843.97;4854611;29;20057;-85
2021/07/16 08:08:15;;;;;;;21.23;6.07;;;;;;;25.20;75.59;100857.72;4846035;29;20506;-85
2021/07/16 08:10:41;;;;;;;20.73;5.30;;;;;;;24.98;75.38;100859.28;4862460;29;20056;-85
2021/07/16 08:13:06;;;;;;;23.40;5.70;;;;;;;24.92;74.54;100862.38;4862504;29;20045;-85
2021/07/16 08:15:32;;;;;;;25.92;5.55;;;;;;;24.84;76.49;100861.25;4845787;29;20506;-84
2021/07/16 08:17:57;;;;;;;22.63;5.45;;;;;;;24.83;77.11;100863.06;4884538;23;20034;-87
2021/07/16 08:20:26;;;;;;;23.15;5.88;;;;;;;24.36;78.70;100875.25;4861307;29;20132;-86
2021/07/16 08:22:51;;;;;;;20.83;5.85;;;;;;;24.31;78.81;100880.03;4861992;29;20033;-86
2021/07/16 08:25:17;;;;;;;17.20;4.88;;;;;;;23.60;82.31;100884.03;4846408;29;20032;-86
2021/07/16 08:27:44;;;;;;;18.15;4.63;;;;;;;23.95;82.03;100880.81;4861914;29;20021;-86
2021/07/16 08:30:10;;;;;;;22.90;5.88;;;;;;;24.17;79.66;100872.19;4845394;29;20096;-86
2021/07/16 08:32:36;;;;;;;18.48;4.55;;;;;;;25.15;76.19;100863.34;4845312;29;20030;-86
2021/07/16 08:35:03;;;;;;;20.90;5.57;;;;;;;25.60;74.01;100865.31;4845195;29;20037;-86
2021/07/16 08:37:28;;;;;;;19.40;5.53;;;;;;;25.91;72.22;100863.81;4861949;29;20044;-86
2021/07/16 08:39:55;;;;;;;19.30;4.87;;;;;;;26.39;69.94;100859.13;4845107;29;20451;-86
2021/07/16 08:42:21;;;;;;;19.55;5.40;;;;;;;26.52;69.97;100858.16;4845071;29;20278;-86
2021/07/16 08:44:47;;;;;;;18.30;4.85;;;;;;;26.78;68.20;100867.50;4845020;29;20502;-86
2021/07/16 08:47:12;;;;;;;17.92;4.72;;;;;;;26.63;66.06;100871.41;4845261;29;20100;-86
2021/07/16 08:49:41;;;;;;;18.45;4.88;;;;;;;26.16;67.08;100870.72;4845119;29;20044;-86
2021/07/16 08:52:08;;;;;;;18.42;4.72;;;;;;;25.84;68.65;100875.91;4861402;29;20089;-87
2021/07/16 08:54:38;;;;;;;18.48;5.43;;;;;;;26.65;69.84;100864.16;4844751;29;20029;-87
2021/07/16 08:57:03;;;;;;;18.15;5.38;;;;;;;26.88;65.84;100864.97;4844756;29;20028;-87
2021/07/16 08:59:29;;;;;;;13.88;4.15;;;;;;;26.49;66.31;100864.56;4844804;29;20037;-87
2021/07/16 09:01:57;;;;;;;17.90;4.68;;;;;;;26.41;66.54;100867.78;4844766;29;20041;-87
2021/07/16 09:04:23;;;;;;;17.95;4.55;;;;;;;27.28;64.08;100867.88;4845373;29;20482;-87
2021/07/16 09:06:52;;;;;;;26.02;8.73;;;;;;;27.69;62.72;100876.00;4844669;29;20111;-87
2021/07/16 09:09:19;;;;;;;19.40;4.82;;;;;;;26.58;65.73;100878.94;4844656;29;20029;-87
2021/07/16 09:11:54;;;;;;;18.65;4.80;;;;;;;26.54;64.71;100878.34;4845083;29;20432;-87
2021/07/16 09:14:28;;;;;;;15.43;4.40;;;;;;;25.73;68.36;100885.50;4861763;29;20085;-87
2021/07/16 09:17:10;;;;;;;14.73;4.57;;;;;;;25.63;68.87;100878.38;4844474;29;20112;-87
2021/07/16 09:19:42;;;;;;;15.45;4.25;;;;;;;25.80;70.19;100877.94;4844591;29;20169;-87
2021/07/16 09:22:13;;;;;;;19.65;4.82;;;;;;;26.37;67.89;100871.69;4844544;29;20506;-87
2021/07/16 09:24:48;;;;;;;20.55;4.97;;;;;;;27.13;63.56;100874.44;4844609;29;20040;-87
2021/07/16 09:27:36;;;;;;;19.42;5.68;;;;;;;26.61;66.83;100882.19;4861329;29;20040;-87
2021/07/16 09:30:21;;;;;;;17.40;4.25;;;;;;;26.68;67.07;100879.03;4844328;29;20030;-87
2021/07/16 09:32:48;;;;;;;14.38;4.47;;;;;;;27.40;61.31;100876.66;4844403;29;20033;-87
2021/07/16 09:35:17;;;;;;;16.33;4.43;;;;;;;26.89;64.99;100879.13;4844731;29;20025;-87
2021/07/16 09:38:07;;;;;;;20.25;4.75;;;;;;;26.34;65.71;100882.56;4844357;29;20029;-88
2021/07/16 09:40:40;;;;;;;19.27;4.57;;;;;;;27.22;64.06;100889.69;4843809;29;20037;-87
2021/07/16 09:43:11;;;;;;;17.10;5.18;;;;;;;26.81;66.05;100877.91;4844485;29;20052;-87
2021/07/16 09:45:39;;;;;;;13.63;4.63;;;;;;;28.41;61.85;100885.78;4844318;29;20040;-87
2021/07/16 09:48:28;;;;;;;19.55;4.47;;;;;;;27.67;62.99;100883.28;4860735;29;20036;-87
2021/07/16 09:51:14;;;;;;;18.10;4.65;;;;;;;26.52;65.01;100884.75;4844407;29;20048;-88
2021/07/16 09:53:50;;;;;;;19.00;4.72;;;;;;;26.30;67.43;100882.94;4860327;29;20414;-87
2021/07/16 09:56:25;;;;;;;17.98;4.78;;;;;;;26.01;71.81;100894.03;4844266;29;20026;-87
2021/07/16 09:59:01;;;;;;;16.23;4.95;;;;;;;25.50;70.30;100886.44;4845098;29;20471;-87
2021/07/16 10:01:27;;;;;;;19.08;4.85;;;;;;;26.38;66.87;100889.31;4848511;29;20483;-87
2021/07/16 10:03:54;;;;;;;15.15;4.82;;;;;;;27.38;66.43;100880.41;4847935;29;20126;-87
2021/07/16 10:06:25;;;;;;;19.77;4.82;;;;;;;27.02;67.70;100882.47;4848252;29;20028;-87
2021/07/16 10:08:53;;;;;;;16.30;4.60;;;;;;;27.85;64.51;100876.41;4848496;29;20036;-87
2021/07/16 10:11:19;;;;;;;13.27;4.20;;;;;;;27.91;62.87;100877.69;4847725;29;20089;-87
2021/07/16 10:13:47;;;;;;;15.75;4.00;;;;;;;27.72;64.01;100873.91;4864214;29;20056;-87
2021/07/16 10:16:13;;;;;;;19.73;4.65;;;;;;;26.68;66.34;100874.56;4848086;29;20026;-87
2021/07/16 10:18:39;;;;;;;16.45;4.50;;;;;;;26.62;69.63;100875.91;4847479;29;20053;-87
2021/07/16 10:21:05;;;;;;;19.00;5.05;;;;;;;26.01;72.05;100886.06;4848134;29;20033;-87
2021/07/16 10:23:32;;;;;;;16.60;4.15;;;;;;;25.98;71.90;100893.44;4848182;29;20030;-87
2021/07/16 10:25:59;;;;;;;18.42;4.70;;;;;;;25.73;73.52;100887.31;4864773;29;20471;-87
2021/07/16 10:28:40;;;;;;;20.73;5.05;;;;;;;25.77;74.19;100893.22;4847477;29;20041;-87
2021/07/16 10:31:27;;;;;;;17.65;4.90;;;;;;;26.57;72.19;100885.22;4848278;29;20569;-87
2021/07/16 10:33:53;;;;;;;16.80;4.30;;;;;;;26.78;71.32;100894.13;4847696;29;20116;-87
2021/07/16 10:36:39;;;;;;;17.63;4.50;;;;;;;26.06;73.65;100899.84;4847362;29;20138;-87
2021/07/16 10:39:06;;;;;;;21.75;4.97;;;;;;;26.27;72.71;100902.63;4847980;29;20029;-87
2021/07/16 10:41:38;;;;;;;19.67;5.47;;;;;;;26.00;74.99;100902.97;4848075;29;20041;-87
2021/07/16 10:44:14;;;;;;;19.40;5.18;;;;;;;25.58;77.93;100913.22;4847779;29;20029;-87
2021/07/16 10:46:44;;;;;;;19.60;5.22;;;;;;;26.22;73.77;100910.13;4847560;29;20112;-87
2021/07/16 10:49:12;;;;;;;18.40;5.18;;;;;;;26.51;75.66;100909.66;4864106;29;20025;-87
2021/07/16 10:51:40;;;;;;;25.70;5.53;;;;;;;25.96;76.81;100920.13;4847394;29;20037;-87
2021/07/16 10:54:16;;;;;;;23.30;6.13;;;;;;;26.40;73.36;100911.34;4847678;29;20401;-87
2021/07/16 10:56:46;;;;;;;20.05;4.93;;;;;;;26.34;73.52;100925.13;4847581;29;20029;-87
2021/07/16 10:59:50;;;;;;;24.98;6.38;;;;;;;26.12;73.32;100925.97;4846908;29;20032;-87
2021/07/16 11:02:34;;;;;;;;;;;;;;;26.00;74.60;100934.03;4807244;29;20046;-87
2021/07/16 11:04:59;;;;;;;19.35;5.53;;;;;;;26.04;75.57;100933.66;4806672;29;19913;-87
2021/07/16 11:07:35;;;;;;;19.30;4.93;;;;;;;27.12;69.64;100925.16;4824034;29;20509;-87
2021/07/16 11:10:00;;;;;;;19.48;5.35;;;;;;;27.06;71.21;100930.03;4846175;29;20112;-87
2021/07/16 11:12:33;;;;;;;21.45;6.28;;;;;;;26.51;70.72;100936.25;4846072;29;20093;-87